Time,TemperatureF,DewpointF,PressureIn,WindDirection,WindDirectionDegrees,WindSpeedMPH,WindSpeedGustMPH,Humidity,HourlyPrecipIn,Conditions,Clouds,dailyrainin,SoftwareType,DateUTC
2013-09-22 00:07:00,60.4,58.0,29.88,North,349,3.0,4.0,90,0.00,,,2.41,weatherlink.com 1.10,2013-09-22 04:07:00,
2013-09-22 00:22:00,60.1,57.0,29.89,NNW,342,2.0,4.0,90,0.00,,,0.00,weatherlink.com 1.10,2013-09-22 04:22:00,
2013-09-22 00:37:00,59.9,57.0,29.89,NNE,13,1.0,5.0,90,0.00,,,0.00,weatherlink.com 1.10,2013-09-22 04:37:00,
2013-09-22 00:52:00,59.9,57.0,29.88,NNW,338,0.0,4.0,90,0.00,,,0.00,weatherlink.com 1.10,2013-09-22 04:52:00,
2013-09-22 01:07:00,59.4,57.0,29.88,NNW,339,0.0,2.0,91,0.00,,,0.00,weatherlink.com 1.10,2013-09-22 05:07:00,
2013-09-22 01:22:00,59.3,56.0,29.89,NNW,328,0.0,1.0,90,0.00,,,0.00,weatherlink.com 1.10,2013-09-22 05:22:00,
2013-09-22 01:37:00,59.0,57.0,29.89,NNW,341,0.0,1.0,92,0.00,,,0.00,weatherlink.com 1.10,2013-09-22 05:37:00,
2013-09-22 01:52:00,58.5,57.0,29.89,NNW,341,0.0,0.0,93,0.00,,,0.00,weatherlink.com 1.10,2013-09-22 05:52:00,
2013-09-22 02:08:00,59.2,56.0,29.90,ENE,58,0.0,2.0,89,0.00,,,0.00,weatherlink.com 1.10,2013-09-22 06:08:00,
2013-09-22 02:22:00,59.1,56.0,29.90,NE,34,1.0,1.0,89,0.00,,,0.00,weatherlink.com 1.10,2013-09-22 06:22:00,
2013-09-22 02:37:00,59.3,56.0,29.90,NNE,26,0.0,1.0,89,0.00,,,0.00,weatherlink.com 1.10,2013-09-22 06:37:00,
2013-09-22 02:52:00,58.6,56.0,29.90,NNW,346,1.0,1.0,91,0.00,,,0.00,weatherlink.com 1.10,2013-09-22 06:52:00,
2013-09-22 03:08:00,57.9,56.0,29.90,NW,323,1.0,2.0,94,0.00,,,0.00,weatherlink.com 1.10,2013-09-22 07:08:00,
2013-09-22 03:23:00,57.6,56.0,29.90,NNW,346,0.0,3.0,94,0.00,,,0.00,weatherlink.com 1.10,2013-09-22 07:23:00,
2013-09-22 03:38:00,57.7,56.0,29.90,NNE,20,1.0,2.0,94,0.00,,,0.00,weatherlink.com 1.10,2013-09-22 07:38:00,
2013-09-22 03:53:00,57.7,56.0,29.90,NNE,20,0.0,2.0,93,0.00,,,0.00,weatherlink.com 1.10,2013-09-22 07:53:00,
2013-09-22 04:08:00,57.3,55.0,29.90,North,360,2.0,2.0,93,0.00,,,0.00,weatherlink.com 1.10,2013-09-22 08:08:00,
2013-09-22 04:23:00,57.1,55.0,29.90,North,1,2.0,4.0,93,0.00,,,0.00,weatherlink.com 1.10,2013-09-22 08:23:00,
2013-09-22 04:38:00,57.2,55.0,29.90,NNE,16,2.0,4.0,92,0.00,,,0.00,weatherlink.com 1.10,2013-09-22 08:38:00,
2013-09-22 04:53:00,57.0,55.0,29.91,North,358,2.0,4.0,93,0.00,,,0.00,weatherlink.com 1.10,2013-09-22 08:53:00,
2013-09-22 05:08:00,57.1,55.0,29.91,North,10,2.0,5.0,92,0.00,,,0.00,weatherlink.com 1.10,2013-09-22 09:08:00,
2013-09-22 05:23:00,56.5,55.0,29.91,North,351,2.0,5.0,93,0.00,,,0.00,weatherlink.com 1.10,2013-09-22 09:23:00,
2013-09-22 05:38:00,56.4,54.0,29.91,North,352,3.0,6.0,92,0.00,,,0.00,weatherlink.com 1.10,2013-09-22 09:38:00,
2013-09-22 05:53:00,56.3,54.0,29.91,North,354,3.0,5.0,91,0.00,,,0.00,weatherlink.com 1.10,2013-09-22 09:53:00,
2013-09-22 06:08:00,56.0,54.0,29.91,NNE,30,4.0,5.0,91,0.00,,,0.00,weatherlink.com 1.10,2013-09-22 10:08:00,
2013-09-22 06:23:00,56.0,54.0,29.91,NNW,344,4.0,6.0,91,0.00,,,0.00,weatherlink.com 1.10,2013-09-22 10:23:00,
2013-09-22 06:38:00,56.0,53.0,29.92,North,3,5.0,6.0,90,0.01,,,0.01,weatherlink.com 1.10,2013-09-22 10:38:00,
2013-09-22 06:53:00,55.8,53.0,29.92,North,6,5.0,7.0,90,0.01,,,0.01,weatherlink.com 1.10,2013-09-22 10:53:00,
2013-09-22 07:08:00,55.6,53.0,29.93,North,4,5.0,7.0,90,0.01,,,0.01,weatherlink.com 1.10,2013-09-22 11:08:00,
2013-09-22 07:23:00,55.5,53.0,29.93,NNW,335,4.0,7.0,90,0.01,,,0.01,weatherlink.com 1.10,2013-09-22 11:23:00,
2013-09-22 07:38:00,55.3,53.0,29.94,NNW,332,3.0,8.0,90,0.00,,,0.01,weatherlink.com 1.10,2013-09-22 11:38:00,
2013-09-22 07:53:00,55.4,53.0,29.94,NNW,343,2.0,8.0,90,0.00,,,0.01,weatherlink.com 1.10,2013-09-22 11:53:00,
2013-09-22 08:08:00,55.7,53.0,29.94,North,349,4.0,7.0,90,0.00,,,0.01,weatherlink.com 1.10,2013-09-22 12:08:00,
2013-09-22 08:23:00,56.3,53.0,29.95,NNW,337,2.0,8.0,89,0.00,,,0.01,weatherlink.com 1.10,2013-09-22 12:23:00,
2013-09-22 08:38:00,57.4,54.0,29.95,NNE,25,4.0,8.0,87,0.00,,,0.01,weatherlink.com 1.10,2013-09-22 12:38:00,
2013-09-22 08:53:00,58.1,54.0,29.96,NNE,17,4.0,6.0,86,0.00,,,0.01,weatherlink.com 1.10,2013-09-22 12:53:00,
2013-09-22 09:08:00,59.0,55.0,29.96,North,354,2.0,7.0,85,0.00,,,0.01,weatherlink.com 1.10,2013-09-22 13:08:00,
2013-09-22 09:23:00,60.0,55.0,29.96,North,359,3.0,6.0,83,0.00,,,0.01,weatherlink.com 1.10,2013-09-22 13:23:00,
2013-09-22 09:38:00,61.4,56.0,29.96,ENE,69,0.0,5.0,81,0.00,,,0.01,weatherlink.com 1.10,2013-09-22 13:38:00,
2013-09-22 09:53:00,63.3,56.0,29.97,North,7,2.0,9.0,78,0.00,,,0.01,weatherlink.com 1.10,2013-09-22 13:53:00,
2013-09-22 10:08:00,64.5,56.0,29.97,North,360,1.0,6.0,73,0.00,,,0.01,weatherlink.com 1.10,2013-09-22 14:08:00,
2013-09-22 10:23:00,65.9,57.0,29.98,NE,53,3.0,8.0,73,0.00,,,0.01,weatherlink.com 1.10,2013-09-22 14:23:00,
2013-09-22 10:38:00,66.9,56.0,29.98,ENE,77,3.0,8.0,67,0.00,,,0.01,weatherlink.com 1.10,2013-09-22 14:38:00,
2013-09-22 10:53:00,67.7,57.0,29.98,NE,51,3.0,7.0,69,0.00,,,0.01,weatherlink.com 1.10,2013-09-22 14:53:00,
2013-09-22 11:09:00,68.3,56.0,29.98,North,4,3.0,9.0,65,0.00,,,0.01,weatherlink.com 1.10,2013-09-22 15:09:00,
2013-09-22 11:24:00,70.0,57.0,29.97,East,84,2.0,8.0,63,0.00,,,0.01,weatherlink.com 1.10,2013-09-22 15:24:00,
2013-09-22 11:39:00,71.7,56.0,29.97,ESE,123,6.0,7.0,58,0.00,,,0.01,weatherlink.com 1.10,2013-09-22 15:39:00,
2013-09-22 11:54:00,70.5,55.0,29.98,ENE,68,5.0,7.0,58,0.00,,,0.01,weatherlink.com 1.10,2013-09-22 15:54:00,
2013-09-22 12:09:00,68.3,53.0,29.98,NE,49,4.0,11.0,59,0.00,,,0.01,weatherlink.com 1.10,2013-09-22 16:09:00,
2013-09-22 12:24:00,70.9,56.0,29.98,NNW,345,1.0,8.0,59,0.00,,,0.01,weatherlink.com 1.10,2013-09-22 16:24:00,
2013-09-22 12:39:00,72.2,53.0,29.98,NE,41,4.0,10.0,52,0.00,,,0.01,weatherlink.com 1.10,2013-09-22 16:39:00,
2013-09-22 12:54:00,71.1,53.0,29.98,North,353,6.0,7.0,53,0.00,,,0.01,weatherlink.com 1.10,2013-09-22 16:54:00,
2013-09-22 13:09:00,71.8,54.0,29.98,East,96,5.0,8.0,54,0.00,,,0.01,weatherlink.com 1.10,2013-09-22 17:09:00,
2013-09-22 13:24:00,71.5,53.0,29.98,East,88,1.0,12.0,52,0.00,,,0.01,weatherlink.com 1.10,2013-09-22 17:24:00,
2013-09-22 13:39:00,72.4,54.0,29.97,NNE,32,1.0,7.0,52,0.00,,,0.01,weatherlink.com 1.10,2013-09-22 17:39:00,
2013-09-22 13:54:00,71.9,53.0,29.96,NW,322,6.0,10.0,51,0.00,,,0.01,weatherlink.com 1.10,2013-09-22 17:54:00,
2013-09-22 14:09:00,72.3,52.0,29.96,NNW,330,1.0,11.0,49,0.00,,,0.01,weatherlink.com 1.10,2013-09-22 18:09:00,
2013-09-22 14:24:00,72.4,54.0,29.95,NNW,333,1.0,9.0,52,0.00,,,0.01,weatherlink.com 1.10,2013-09-22 18:24:00,
2013-09-22 14:39:00,73.2,53.0,29.95,NNE,32,1.0,7.0,50,0.00,,,0.01,weatherlink.com 1.10,2013-09-22 18:39:00,
2013-09-22 14:54:00,72.9,53.0,29.95,NNE,25,0.0,6.0,50,0.00,,,0.01,weatherlink.com 1.10,2013-09-22 18:54:00,
2013-09-22 15:09:00,73.7,52.0,29.95,ENE,75,1.0,8.0,46,0.00,,,0.01,weatherlink.com 1.10,2013-09-22 19:09:00,
2013-09-22 15:24:00,74.6,52.0,29.94,ENE,58,1.0,8.0,46,0.00,,,0.01,weatherlink.com 1.10,2013-09-22 19:24:00,
2013-09-22 15:39:00,75.1,53.0,29.94,NNW,338,2.0,5.0,46,0.00,,,0.01,weatherlink.com 1.10,2013-09-22 19:39:00,
2013-09-22 15:54:00,73.4,54.0,29.94,North,8,5.0,9.0,51,0.00,,,0.01,weatherlink.com 1.10,2013-09-22 19:54:00,
2013-09-22 16:09:00,73.5,54.0,29.94,NE,41,3.0,8.0,50,0.00,,,0.01,weatherlink.com 1.10,2013-09-22 20:09:00,
2013-09-22 16:24:00,74.4,54.0,29.94,ENE,63,1.0,9.0,50,0.00,,,0.01,weatherlink.com 1.10,2013-09-22 20:24:00,
2013-09-22 16:39:00,74.5,54.0,29.94,NNE,15,0.0,4.0,49,0.00,,,0.01,weatherlink.com 1.10,2013-09-22 20:39:00,
2013-09-22 16:54:00,74.4,54.0,29.94,NNE,15,3.0,6.0,50,0.00,,,0.01,weatherlink.com 1.10,2013-09-22 20:54:00,
2013-09-22 17:09:00,73.5,54.0,29.93,NNW,333,6.0,9.0,50,0.00,,,0.01,weatherlink.com 1.10,2013-09-22 21:09:00,
2013-09-22 17:24:00,73.3,53.0,29.93,WNW,289,0.0,8.0,50,0.00,,,0.01,weatherlink.com 1.10,2013-09-22 21:24:00,
2013-09-22 17:39:00,73.6,54.0,29.93,ENE,77,0.0,5.0,50,0.00,,,0.01,weatherlink.com 1.10,2013-09-22 21:39:00,
2013-09-22 17:54:00,73.2,54.0,29.94,East,92,2.0,7.0,51,0.00,,,0.01,weatherlink.com 1.10,2013-09-22 21:54:00,
2013-09-22 18:09:00,72.7,52.0,29.94,North,2,2.0,8.0,49,0.00,,,0.01,weatherlink.com 1.10,2013-09-22 22:09:00,
2013-09-22 18:24:00,72.7,53.0,29.94,NW,309,2.0,6.0,50,0.00,,,0.01,weatherlink.com 1.10,2013-09-22 22:24:00,
2013-09-22 18:39:00,72.6,53.0,29.94,NNE,12,2.0,4.0,51,0.00,,,0.01,weatherlink.com 1.10,2013-09-22 22:39:00,
2013-09-22 18:54:00,72.1,55.0,29.94,NNE,13,2.0,4.0,55,0.00,,,0.01,weatherlink.com 1.10,2013-09-22 22:54:00,
2013-09-22 19:09:00,70.8,56.0,29.94,NNE,30,0.0,4.0,60,0.00,,,0.01,weatherlink.com 1.10,2013-09-22 23:09:00,
2013-09-22 19:24:00,69.1,56.0,29.94,NW,325,4.0,8.0,63,0.00,,,0.01,weatherlink.com 1.10,2013-09-22 23:24:00,
2013-09-22 19:39:00,67.3,55.0,29.95,NNW,334,3.0,8.0,66,0.00,,,0.01,weatherlink.com 1.10,2013-09-22 23:39:00,
2013-09-22 19:54:00,66.4,55.0,29.95,North,356,6.0,9.0,67,0.00,,,0.01,weatherlink.com 1.10,2013-09-22 23:54:00,
2013-09-22 20:09:00,65.8,55.0,29.95,NNW,348,7.0,8.0,69,0.00,,,0.01,weatherlink.com 1.10,2013-09-23 00:09:00,
2013-09-22 20:24:00,65.2,55.0,29.96,North,354,5.0,8.0,70,0.00,,,0.01,weatherlink.com 1.10,2013-09-23 00:24:00,
2013-09-22 20:39:00,64.7,55.0,29.97,North,355,5.0,8.0,72,0.00,,,0.01,weatherlink.com 1.10,2013-09-23 00:39:00,
2013-09-22 20:54:00,64.3,55.0,29.97,NNW,342,3.0,8.0,73,0.00,,,0.01,weatherlink.com 1.10,2013-09-23 00:54:00,
2013-09-22 21:09:00,63.8,55.0,29.97,NNW,332,2.0,7.0,73,0.00,,,0.01,weatherlink.com 1.10,2013-09-23 01:09:00,
2013-09-22 21:24:00,63.2,55.0,29.97,WNW,288,2.0,6.0,75,0.00,,,0.01,weatherlink.com 1.10,2013-09-23 01:24:00,
2013-09-22 21:39:00,62.7,55.0,29.97,NNW,347,4.0,7.0,76,0.00,,,0.01,weatherlink.com 1.10,2013-09-23 01:39:00,
2013-09-22 21:54:00,62.6,55.0,29.98,North,1,8.0,9.0,75,0.00,,,0.01,weatherlink.com 1.10,2013-09-23 01:54:00,
2013-09-22 22:09:00,62.3,54.0,29.98,NNE,13,4.0,7.0,75,0.00,,,0.01,weatherlink.com 1.10,2013-09-23 02:09:00,
2013-09-22 22:24:00,62.1,54.0,29.98,ENE,72,7.0,8.0,75,0.00,,,0.01,weatherlink.com 1.10,2013-09-23 02:24:00,
2013-09-22 22:39:00,62.0,54.0,29.98,NNW,333,6.0,9.0,75,0.00,,,0.01,weatherlink.com 1.10,2013-09-23 02:39:00,
2013-09-22 22:54:00,61.8,54.0,29.98,NE,44,4.0,8.0,75,0.00,,,0.01,weatherlink.com 1.10,2013-09-23 02:54:00,
2013-09-22 23:09:00,61.4,54.0,29.99,NNE,25,0.0,7.0,76,0.00,,,0.01,weatherlink.com 1.10,2013-09-23 03:09:00,
2013-09-22 23:24:00,61.0,54.0,29.99,North,10,2.0,5.0,77,0.00,,,0.01,weatherlink.com 1.10,2013-09-23 03:24:00,
2013-09-22 23:39:00,60.9,54.0,30.00,NE,43,4.0,10.0,77,0.00,,,0.01,weatherlink.com 1.10,2013-09-23 03:39:00,
2013-09-22 23:54:00,60.6,54.0,30.00,ENE,75,3.0,7.0,78,0.00,,,0.01,weatherlink.com 1.10,2013-09-23 03:54:00,